createdAt,value
2023-05-12T00:09:00.435Z,0.57
2023-05-12T00:11:27.039Z,0.73
2023-05-12T00:16:26.617Z,0.67
2023-05-12T00:18:53.396Z,1.00
2023-05-12T00:28:54.488Z,1.00
2023-05-12T00:36:24.072Z,0.73
2023-05-12T00:38:50.667Z,1.50
2023-05-12T00:41:17.213Z,0.77
2023-05-12T00:43:43.814Z,0.90
2023-05-12T00:53:50.357Z,1.60
2023-05-12T00:56:19.053Z,0.87
2023-05-12T00:58:46.588Z,1.73
2023-05-12T01:14:13.237Z,0.77
2023-05-12T01:19:41.304Z,1.00
2023-05-12T01:22:09.505Z,0.93
2023-05-12T01:24:45.083Z,0.87
2023-05-12T01:27:13.205Z,0.63
2023-05-12T01:29:40.188Z,0.53
2023-05-12T01:32:07.706Z,0.80
2023-05-12T01:34:34.559Z,0.80
2023-05-12T01:37:01.295Z,0.70
2023-05-12T01:39:27.841Z,0.90
2023-05-12T01:41:54.400Z,0.63
2023-05-12T01:44:21.477Z,1.20
2023-05-12T01:46:49.492Z,1.10
2023-05-12T01:51:42.835Z,0.70
2023-05-12T01:54:09.414Z,0.77
2023-05-12T01:56:36.421Z,0.80
2023-05-12T01:59:03.224Z,1.00
2023-05-12T02:01:29.873Z,0.60
2023-05-12T02:03:56.525Z,0.80
2023-05-12T02:06:23.632Z,1.00
2023-05-12T02:08:50.515Z,0.70
2023-05-12T02:11:17.354Z,0.80
2023-05-12T02:13:47.068Z,0.83
2023-05-12T02:16:13.742Z,0.73
2023-05-12T02:18:40.452Z,0.73
2023-05-12T02:21:07.132Z,0.80
2023-05-12T02:23:33.844Z,1.17
2023-05-12T02:26:00.491Z,0.60
2023-05-12T02:28:27.011Z,0.70
2023-05-12T02:30:54.324Z,0.70
2023-05-12T02:33:22.859Z,0.73
2023-05-12T02:35:49.469Z,0.80
2023-05-12T02:38:15.992Z,0.80
2023-05-12T02:40:42.901Z,0.80
2023-05-12T02:43:09.505Z,0.77
2023-05-12T02:45:36.255Z,0.80
2023-05-12T02:50:34.338Z,1.70
2023-05-12T02:53:00.987Z,0.83
2023-05-12T02:55:29.779Z,1.00
2023-05-12T02:57:57.123Z,1.53
2023-05-12T03:00:23.799Z,0.80
2023-05-12T03:02:51.519Z,0.93
2023-05-12T03:05:18.252Z,0.60
2023-05-12T03:07:44.921Z,0.80
2023-05-12T03:10:11.551Z,0.70
2023-05-12T03:12:38.153Z,0.73
2023-05-12T03:15:05.080Z,0.90
2023-05-12T03:17:31.623Z,0.87
2023-05-12T03:19:58.178Z,1.00
2023-05-12T03:22:24.858Z,0.57
2023-05-12T03:24:51.854Z,0.73
2023-05-12T03:27:18.689Z,0.90
2023-05-12T03:29:45.834Z,0.67
2023-05-12T03:32:12.912Z,0.83
2023-05-12T03:39:42.494Z,0.50
2023-05-12T03:42:09.038Z,0.47
2023-05-12T03:44:35.591Z,0.70
2023-05-12T03:52:05.406Z,1.00
2023-05-12T03:54:31.957Z,0.80
2023-05-12T03:56:58.718Z,0.80
2023-05-12T03:59:25.591Z,1.33
2023-05-12T04:01:53.399Z,0.90
2023-05-12T04:04:20.082Z,1.00
2023-05-12T04:06:46.670Z,1.30
2023-05-12T04:09:13.255Z,0.80
2023-05-12T04:14:11.385Z,1.00
2023-05-12T04:16:37.973Z,0.80
2023-05-12T04:19:04.636Z,0.80
2023-05-12T04:21:31.395Z,0.90
2023-05-12T04:23:57.923Z,1.10
2023-05-12T04:26:24.457Z,1.07
2023-05-12T04:28:51.306Z,0.60
2023-05-12T04:31:17.960Z,0.87
2023-05-12T04:33:46.450Z,0.90
2023-05-12T04:36:14.121Z,0.83
2023-05-12T04:38:41.560Z,0.60
2023-05-12T04:41:08.146Z,0.67
2023-05-12T04:46:05.968Z,0.70
2023-05-12T04:48:32.618Z,0.80
2023-05-12T04:51:00.231Z,1.17
2023-05-12T04:53:27.694Z,0.80
2023-05-12T04:55:56.399Z,0.80
2023-05-12T04:58:23.223Z,1.03
2023-05-12T05:00:50.066Z,0.80
2023-05-12T05:03:16.854Z,1.00
2023-05-12T05:05:43.648Z,0.90
2023-05-12T05:08:10.249Z,0.80
2023-05-12T05:10:37.166Z,0.57
2023-05-12T05:13:03.926Z,0.73
2023-05-12T05:15:30.888Z,0.60
2023-05-12T05:20:29.521Z,0.70
2023-05-12T05:25:27.907Z,1.27
2023-05-12T05:27:55.630Z,0.73
2023-05-12T05:30:22.259Z,0.70
2023-05-12T05:32:48.938Z,0.80
2023-05-12T05:35:15.709Z,0.80
2023-05-12T05:37:42.557Z,0.80
2023-05-12T05:40:09.630Z,0.60
2023-05-12T05:42:36.305Z,0.90
2023-05-12T05:45:03.280Z,0.77
2023-05-12T05:47:31.510Z,0.93
2023-05-12T05:49:58.178Z,0.80
2023-05-12T05:52:24.884Z,0.90
2023-05-12T05:54:51.477Z,0.90
2023-05-12T05:57:18.116Z,0.93
2023-05-12T05:59:45.048Z,0.60
2023-05-12T06:02:11.781Z,0.60
2023-05-12T06:04:38.501Z,0.93
2023-05-12T06:07:05.775Z,0.90
2023-05-12T06:09:32.470Z,1.00
2023-05-12T06:11:59.153Z,0.70
2023-05-12T06:19:28.769Z,0.87
2023-05-12T06:21:55.368Z,0.60
2023-05-12T06:30:36.300Z,1.00
2023-05-12T06:33:03.026Z,1.00
2023-05-12T06:35:29.787Z,0.90
2023-05-12T06:37:56.492Z,0.80
2023-05-12T06:40:23.172Z,1.00
2023-05-12T06:42:50.066Z,0.93
2023-05-12T06:45:23.694Z,0.83
2023-05-12T06:47:50.689Z,0.70
2023-05-12T06:50:17.587Z,0.70
2023-05-12T06:52:45.149Z,0.90
2023-05-12T06:55:11.881Z,0.80
2023-05-12T06:57:38.614Z,0.63
2023-05-12T07:00:05.948Z,0.77
2023-05-12T07:02:32.628Z,0.70
2023-05-12T07:04:59.253Z,0.93
2023-05-12T07:07:25.941Z,0.60
2023-05-12T07:09:52.663Z,0.90
2023-05-12T07:12:19.282Z,1.13
2023-05-12T07:14:46.049Z,0.77
2023-05-12T07:17:12.695Z,0.80
2023-05-12T07:19:40.165Z,0.70
2023-05-12T07:22:07.043Z,0.80
2023-05-12T07:24:34.070Z,0.73
2023-05-12T07:31:58.971Z,1.17
2023-05-12T07:36:57.414Z,1.00
2023-05-12T07:39:24.088Z,0.70
2023-05-12T07:44:25.074Z,1.03
2023-05-12T07:49:18.231Z,0.80
2023-05-12T07:51:44.870Z,0.80
2023-05-12T08:01:43.071Z,2.13
2023-05-12T08:04:10.007Z,0.70
2023-05-12T08:14:11.485Z,0.83
2023-05-12T08:16:38.177Z,0.90
2023-05-12T08:19:04.930Z,0.70
2023-05-12T08:21:31.766Z,1.07
2023-05-12T08:23:58.558Z,1.10
2023-05-12T08:26:25.210Z,0.90
2023-05-12T08:28:51.934Z,0.80
2023-05-12T08:31:18.690Z,1.00
2023-05-12T08:33:45.728Z,0.80
2023-05-12T08:36:13.059Z,1.00
2023-05-12T08:38:40.066Z,1.33
2023-05-12T08:41:40.184Z,1.20
2023-05-12T08:44:08.233Z,1.63
2023-05-12T08:46:35.476Z,1.00
2023-05-12T08:49:04.384Z,0.80
2023-05-12T08:51:37.982Z,1.53
2023-05-12T08:54:07.396Z,0.70
2023-05-12T08:59:06.721Z,0.80
2023-05-12T09:01:37.139Z,0.80
2023-05-12T09:04:07.182Z,1.50
2023-05-12T09:06:34.466Z,0.90
2023-05-12T09:09:01.886Z,0.70
2023-05-12T09:14:04.756Z,0.70
2023-05-12T09:16:45.889Z,0.90
2023-05-12T09:21:44.371Z,0.87
2023-05-12T09:31:54.038Z,1.13
2023-05-12T09:39:30.292Z,1.10
2023-05-12T09:41:57.219Z,1.80
2023-05-12T09:44:24.983Z,0.83
2023-05-12T09:46:52.666Z,0.80
2023-05-12T09:49:30.252Z,0.67
2023-05-12T09:52:01.594Z,1.00
2023-05-12T10:02:09.561Z,0.80
2023-05-12T10:09:55.699Z,0.90
2023-05-12T10:12:22.509Z,0.73
2023-05-12T10:14:50.224Z,0.80
2023-05-12T10:19:47.538Z,1.77
2023-05-12T10:22:16.403Z,0.80
2023-05-12T10:27:13.630Z,0.90
2023-05-12T10:29:41.032Z,0.90
2023-05-12T10:32:07.918Z,0.80
2023-05-12T10:34:36.984Z,0.90
2023-05-12T10:37:10.012Z,1.07
2023-05-12T10:39:46.199Z,1.73
2023-05-12T10:42:16.331Z,0.70
2023-05-12T10:47:35.732Z,1.10
2023-05-12T10:52:31.278Z,0.80
2023-05-12T10:55:02.256Z,0.80
2023-05-12T11:00:03.605Z,1.00
2023-05-12T11:05:01.616Z,0.77
2023-05-12T11:10:01.721Z,0.93
2023-05-12T11:12:36.104Z,1.23
2023-05-12T11:20:09.674Z,0.80
2023-05-12T11:22:36.451Z,1.13
2023-05-12T11:27:50.704Z,0.77
2023-05-12T11:30:17.653Z,1.30
2023-05-12T11:32:44.345Z,0.90
2023-05-12T11:37:47.128Z,1.20
2023-05-12T11:40:18.541Z,1.00
2023-05-12T11:45:23.113Z,1.67
2023-05-12T11:55:24.622Z,1.30
2023-05-12T12:00:29.818Z,0.97
2023-05-12T12:03:13.301Z,1.03
2023-05-12T12:05:41.827Z,0.80
2023-05-12T12:08:16.092Z,0.90
2023-05-12T12:10:46.801Z,1.27
2023-05-12T12:23:24.067Z,2.67
2023-05-12T12:25:50.703Z,1.27
2023-05-12T12:28:17.425Z,1.20
2023-05-12T12:30:44.137Z,1.00
2023-05-12T12:33:10.902Z,0.90
2023-05-12T12:35:37.622Z,1.20
2023-05-12T12:38:04.641Z,1.13
2023-05-12T12:40:31.351Z,1.20
2023-05-12T12:42:58.010Z,4.03
2023-05-12T12:45:25.172Z,2.67
2023-05-12T12:57:52.220Z,1.00
2023-05-12T13:00:19.493Z,1.17
2023-05-12T13:05:12.880Z,1.30
2023-05-12T13:07:39.527Z,1.40
2023-05-12T13:10:06.671Z,0.90
2023-05-12T13:12:33.442Z,1.03
2023-05-12T13:17:26.867Z,1.30
2023-05-12T13:19:53.641Z,1.30
2023-05-12T13:22:20.951Z,1.00
2023-05-12T13:24:47.855Z,1.20
2023-05-12T13:27:14.484Z,1.63
2023-05-12T13:29:42.372Z,1.40
2023-05-12T13:32:09.129Z,1.53
2023-05-12T13:34:35.855Z,0.93
2023-05-12T13:42:03.175Z,1.10
2023-05-12T13:44:29.842Z,1.37
2023-05-12T13:46:56.517Z,1.17
2023-05-12T13:49:23.187Z,1.20
2023-05-12T13:56:43.148Z,1.30
2023-05-12T13:59:10.371Z,1.00
2023-05-12T14:01:37.155Z,1.33
2023-05-12T14:04:03.892Z,1.27
2023-05-12T14:06:30.507Z,2.07
2023-05-12T14:08:57.117Z,1.30
2023-05-12T14:11:23.759Z,2.10
2023-05-12T14:13:50.405Z,1.60
2023-05-12T14:16:17.108Z,1.53
2023-05-12T14:18:44.068Z,1.10
2023-05-12T14:21:10.903Z,1.23
2023-05-12T14:23:37.770Z,1.40
2023-05-12T14:26:05.052Z,1.50
2023-05-12T14:28:31.763Z,1.40
2023-05-12T14:30:58.398Z,1.20
2023-05-12T14:33:25.404Z,1.47
2023-05-12T14:36:03.249Z,1.37
2023-05-12T14:38:33.513Z,1.20
2023-05-12T14:41:00.148Z,1.53
2023-05-12T14:43:26.789Z,1.20
2023-05-12T14:55:49.665Z,1.50
2023-05-12T14:58:17.701Z,3.13
2023-05-12T15:00:45.043Z,1.40
2023-05-12T15:03:12.083Z,1.07
2023-05-12T15:05:56.950Z,1.33
2023-05-12T15:10:52.062Z,1.43
2023-05-12T15:13:20.343Z,1.30
2023-05-12T15:15:47.467Z,1.40
2023-05-12T15:28:12.216Z,1.53
2023-05-12T15:30:38.863Z,1.20
2023-05-12T15:33:06.810Z,1.70
2023-05-12T15:35:33.969Z,1.50
2023-05-12T15:38:00.745Z,1.43
2023-05-12T15:44:16.350Z,1.63
2023-05-12T15:46:43.500Z,1.10
2023-05-12T15:49:10.246Z,1.53
2023-05-12T15:54:09.522Z,1.80
2023-05-12T15:56:37.328Z,1.43
2023-05-12T15:59:05.148Z,1.60
2023-05-12T16:09:01.646Z,4.97
2023-05-12T16:11:28.280Z,3.17
2023-05-12T16:13:56.910Z,2.73
2023-05-12T16:16:23.730Z,3.57
2023-05-12T16:18:50.466Z,2.90
2023-05-12T16:21:17.170Z,2.80
2023-05-12T16:23:43.793Z,3.73
2023-05-12T16:26:10.455Z,2.03
2023-05-12T16:28:37.227Z,2.23
2023-05-12T16:31:04.462Z,3.40
2023-05-12T16:33:31.198Z,2.53
2023-05-12T16:35:57.900Z,1.63
2023-05-12T16:38:24.588Z,1.63
2023-05-12T16:40:51.352Z,1.20
2023-05-12T16:43:18.060Z,2.20
2023-05-12T16:45:44.761Z,3.67
2023-05-12T16:48:11.438Z,1.30
2023-05-12T16:50:38.105Z,3.20
2023-05-12T16:53:04.791Z,1.40
2023-05-12T16:55:31.500Z,1.57
2023-05-12T16:57:58.112Z,1.87
2023-05-12T17:00:24.738Z,1.50
2023-05-12T17:05:17.945Z,3.00
2023-05-12T17:07:44.655Z,2.30
2023-05-12T17:10:11.711Z,1.47
2023-05-12T17:12:38.442Z,2.20
2023-05-12T17:15:08.167Z,2.50
2023-05-12T17:17:36.086Z,3.07
2023-05-12T17:20:03.652Z,3.10
2023-05-12T17:22:32.014Z,2.93
2023-05-12T17:27:25.694Z,4.87
2023-05-12T17:29:52.338Z,2.77
2023-05-12T17:32:18.942Z,3.00
2023-05-12T17:34:50.017Z,3.03
2023-05-12T17:39:52.997Z,3.77
2023-05-12T17:42:19.711Z,2.70
2023-05-12T17:44:46.745Z,2.70
2023-05-12T17:47:14.146Z,5.07
2023-05-12T17:49:41.253Z,3.20
2023-05-12T17:54:40.004Z,4.10
2023-05-12T17:59:39.033Z,2.37
2023-05-12T18:02:05.842Z,5.03
2023-05-12T18:04:32.476Z,2.37
2023-05-12T18:07:00.042Z,4.13
2023-05-12T18:09:27.175Z,4.87
2023-05-12T18:11:53.763Z,2.97
2023-05-12T18:14:20.467Z,4.33
2023-05-12T18:16:47.171Z,3.47
2023-05-12T18:19:14.032Z,3.83
2023-05-12T18:21:40.714Z,4.43
2023-05-12T18:24:07.459Z,6.17
2023-05-12T18:26:34.215Z,3.30
2023-05-12T18:29:01.041Z,5.80
2023-05-12T18:33:54.666Z,4.13
2023-05-12T18:36:21.286Z,3.27
2023-05-12T18:41:14.601Z,3.07
2023-05-12T18:43:43.963Z,3.40
2023-05-12T18:46:11.672Z,3.40
2023-05-12T18:48:39.068Z,2.80
2023-05-12T18:51:05.870Z,2.97
2023-05-12T18:53:32.509Z,2.73
2023-05-12T18:58:25.765Z,2.83
2023-05-12T19:00:53.258Z,3.83
2023-05-12T19:03:21.425Z,2.23
2023-05-12T19:05:48.916Z,3.83
2023-05-12T19:08:16.671Z,2.73
2023-05-12T19:10:43.328Z,2.83
2023-05-12T19:13:09.940Z,2.37
2023-05-12T19:15:36.649Z,3.73
2023-05-12T19:18:03.720Z,2.43
2023-05-12T19:20:30.962Z,3.73
2023-05-12T19:22:59.717Z,3.13
2023-05-12T19:25:26.414Z,5.37
2023-05-12T19:27:53.037Z,3.83
2023-05-12T19:30:20.048Z,3.40
2023-05-12T19:32:47.013Z,2.93
2023-05-12T19:35:17.303Z,3.37
2023-05-12T19:37:44.123Z,3.17
2023-05-12T19:40:30.458Z,12.43
2023-05-12T19:42:57.245Z,3.30
2023-05-12T19:45:24.010Z,3.07
2023-05-12T19:47:51.637Z,3.90
2023-05-12T19:50:18.821Z,3.83
2023-05-12T19:52:45.483Z,3.07
2023-05-12T19:55:12.281Z,4.67
2023-05-12T19:57:39.167Z,2.50
2023-05-12T20:00:06.404Z,3.40
2023-05-12T20:05:00.477Z,4.53
2023-05-12T20:09:54.175Z,2.40
2023-05-12T20:12:20.811Z,3.47
2023-05-12T20:17:15.388Z,2.70
2023-05-12T20:19:42.883Z,4.93
2023-05-12T20:22:10.299Z,2.87
2023-05-12T20:24:37.432Z,3.70
2023-05-12T20:27:04.258Z,4.23
2023-05-12T20:34:25.946Z,2.97
2023-05-12T20:36:55.397Z,2.13
2023-05-12T20:39:22.142Z,4.67
2023-05-12T20:41:51.250Z,2.33
2023-05-12T20:44:18.097Z,2.87
2023-05-12T20:46:48.649Z,2.13
2023-05-12T20:49:15.564Z,4.03
2023-05-12T20:51:42.187Z,3.20
2023-05-12T20:54:08.959Z,2.23
2023-05-12T20:56:35.603Z,3.23
2023-05-12T20:59:02.553Z,2.17
2023-05-12T21:01:29.354Z,2.80
2023-05-12T21:03:56.133Z,3.37
2023-05-12T21:06:22.819Z,2.70
2023-05-12T21:08:49.502Z,2.27
2023-05-12T21:11:17.451Z,2.20
2023-05-12T21:13:47.525Z,2.83
2023-05-12T21:16:15.433Z,2.77
2023-05-12T21:18:42.310Z,2.23
2023-05-12T21:21:09.050Z,2.63
2023-05-12T21:23:37.413Z,3.03
2023-05-12T21:26:04.711Z,2.23
2023-05-12T21:28:31.466Z,1.97
2023-05-12T21:30:58.184Z,2.37
2023-05-12T21:33:24.931Z,1.60
2023-05-12T21:35:51.727Z,2.03
2023-05-12T21:38:19.397Z,2.00
2023-05-12T21:40:49.614Z,2.87
2023-05-12T21:43:16.358Z,5.07
2023-05-12T21:45:43.292Z,4.13
2023-05-12T21:48:10.184Z,3.30
2023-05-12T21:50:36.892Z,1.73
2023-05-12T21:53:03.802Z,3.17
2023-05-12T21:55:30.511Z,2.50
2023-05-12T22:07:46.472Z,1.87
2023-05-12T22:12:42.491Z,1.53
2023-05-12T22:15:09.527Z,2.67
2023-05-12T22:20:02.868Z,2.53
2023-05-12T22:27:28.900Z,1.53
2023-05-12T22:32:28.389Z,1.63
2023-05-12T22:40:02.450Z,1.87
2023-05-12T22:42:29.195Z,1.90
2023-05-12T22:47:24.119Z,2.10
2023-05-12T22:49:50.939Z,2.40
2023-05-12T22:52:17.712Z,2.80
2023-05-12T22:54:44.430Z,2.03
2023-05-12T22:57:11.035Z,2.03
2023-05-12T22:59:37.763Z,2.00
2023-05-12T23:02:04.625Z,2.90
2023-05-12T23:04:31.355Z,2.70
2023-05-12T23:06:58.081Z,1.77
2023-05-12T23:09:24.806Z,1.90
2023-05-12T23:11:51.913Z,1.67
2023-05-12T23:21:42.237Z,1.50
2023-05-12T23:24:09.207Z,1.67
2023-05-12T23:26:35.980Z,1.30
2023-05-12T23:29:02.820Z,1.80
2023-05-12T23:31:29.634Z,2.23
2023-05-12T23:33:56.615Z,2.07
2023-05-12T23:36:23.449Z,1.47
2023-05-12T23:38:53.576Z,2.40
2023-05-12T23:43:52.266Z,3.20
2023-05-12T23:48:45.561Z,1.70
2023-05-12T23:51:12.371Z,1.90
2023-05-12T23:53:39.153Z,1.70
2023-05-12T23:56:06.342Z,1.87
2023-05-12T23:58:33.036Z,1.93
